Time;durP1;ratioP1;P1;durP2;ratioP2;P2;SDS_P1;SDS_P2;PMS_P1;PMS_P2;Temp;Humidity;BMP_temperature;BMP_pressure;BME280_temperature;BME280_humidity;BME280_pressure;Samples;Min_cycle;Max_cycle;Signal;HPM_P1;HPM_P2
2022/05/01 02:03:24;;;;;;;30.70;20.30;;;;;;;8.42;53.97;100663.87;105937;1262;107908;-75
2022/05/01 02:05:57;;;;;;;31.40;19.70;;;;;;;8.38;54.12;100661.69;106162;1273;97814;-76
2022/05/01 02:08:29;;;;;;;27.90;19.10;;;;;;;8.37;54.28;100663.09;106011;1273;138455;-76
2022/05/01 02:11:01;;;;;;;28.10;18.90;;;;;;;8.37;54.40;100659.45;106174;1273;112228;-76
2022/05/01 02:13:33;;;;;;;33.30;20.00;;;;;;;8.39;54.38;100661.31;106796;1273;139796;-77
2022/05/01 02:16:05;;;;;;;29.30;18.20;;;;;;;8.42;54.45;100662.48;107030;1273;108133;-76
2022/05/01 02:18:37;;;;;;;31.40;19.50;;;;;;;8.45;54.41;100661.95;106140;1273;98303;-75
2022/05/01 02:24:01;;;;;;;26.60;18.30;;;;;;;8.48;54.68;100664.83;107117;1273;112659;-76
2022/05/01 02:26:35;;;;;;;27.00;18.90;;;;;;;8.46;54.67;100664.00;106900;1273;138876;-76
2022/05/01 02:29:11;;;;;;;27.40;18.80;;;;;;;8.46;54.78;100666.94;106163;1273;108367;-75
2022/05/01 02:31:45;;;;;;;25.80;18.90;;;;;;;8.47;54.78;100669.34;107463;1273;138760;-75
2022/05/01 02:34:17;;;;;;;28.40;18.10;;;;;;;8.49;54.93;100666.54;107685;1273;96074;-76
2022/05/01 02:36:51;;;;;;;26.00;18.90;;;;;;;8.48;54.86;100658.59;106562;1273;112477;-75
2022/05/01 02:39:24;;;;;;;27.50;18.40;;;;;;;8.46;54.74;100661.40;106335;1273;137904;-75
2022/05/01 02:41:57;;;;;;;27.10;18.70;;;;;;;8.43;55.00;100659.52;106414;1272;108773;-76
2022/05/01 02:44:30;;;;;;;30.70;19.10;;;;;;;8.40;55.01;100657.31;107119;1273;137927;-76
2022/05/01 02:47:02;;;;;;;27.10;18.60;;;;;;;8.36;55.22;100655.66;106361;1273;97681;-76
2022/05/01 02:49:35;;;;;;;26.40;18.20;;;;;;;8.31;55.35;100654.67;106166;1273;138027;-76
2022/05/01 02:52:08;;;;;;;28.00;17.90;;;;;;;8.28;55.45;100657.17;107137;1274;109114;-76
2022/05/01 02:54:39;;;;;;;25.70;17.30;;;;;;;8.23;55.45;100658.43;107061;1273;108782;-76
2022/05/01 02:57:13;;;;;;;25.90;16.70;;;;;;;8.20;55.54;100660.23;106053;1273;139359;-76
2022/05/01 02:59:45;;;;;;;26.60;17.40;;;;;;;8.17;55.61;100662.34;106204;1273;100557;-76
2022/05/01 03:02:18;;;;;;;26.80;17.30;;;;;;;8.19;55.88;100663.86;106542;1273;138697;-76
2022/05/01 03:04:50;;;;;;;27.50;17.20;;;;;;;8.21;56.06;100665.91;107673;1272;107610;-76
2022/05/01 03:07:22;;;;;;;27.20;17.40;;;;;;;8.25;56.01;100667.07;107148;1273;138253;-75
2022/05/01 03:09:55;;;;;;;28.70;17.90;;;;;;;8.27;56.03;100664.46;106351;1273;97938;-76
2022/05/01 03:12:27;;;;;;;29.50;17.10;;;;;;;8.26;55.98;100664.64;107733;1273;96655;-77
2022/05/01 03:14:59;;;;;;;25.50;18.30;;;;;;;8.30;55.91;100671.67;107551;1273;138537;-76
2022/05/01 03:22:10;;;;;;;29.80;19.10;;;;;;;8.32;56.00;100670.61;107725;1272;108886;-77
2022/05/01 03:23:13;;;;;;;28.10;18.30;;;;;;;8.31;55.95;100670.80;107685;1273;96170;-77
2022/05/01 03:25:45;;;;;;;26.60;18.30;;;;;;;8.28;56.05;100669.29;107588;1273;138212;-77
2022/05/01 03:28:17;;;;;;;26.90;17.30;;;;;;;8.25;56.17;100671.56;107673;1273;111453;-76
2022/05/01 03:30:49;;;;;;;26.40;18.60;;;;;;;8.26;56.28;100669.84;107249;1273;107691;-76
2022/05/01 03:33:22;;;;;;;28.40;19.20;;;;;;;8.26;56.36;100668.79;107131;1273;139794;-76
2022/05/01 03:35:55;;;;;;;24.70;18.00;;;;;;;8.29;56.44;100671.00;107209;1273;96346;-76
2022/05/01 03:38:27;;;;;;;23.50;17.60;;;;;;;8.33;56.48;100671.81;106586;1273;137697;-76
2022/05/01 03:40:59;;;;;;;25.70;17.00;;;;;;;8.36;56.31;100671.27;106501;1273;111690;-76
2022/05/01 03:43:31;;;;;;;23.80;16.90;;;;;;;8.37;56.48;100669.85;106094;1274;142681;-75
2022/05/01 03:46:05;;;;;;;23.70;16.50;;;;;;;8.40;56.31;100665.47;106298;1273;109019;-75
2022/05/01 03:48:37;;;;;;;23.10;16.50;;;;;;;8.42;56.38;100665.94;107689;1273;96605;-76
2022/05/01 03:51:09;;;;;;;20.20;15.10;;;;;;;8.47;56.35;100667.45;106538;1271;138228;-76
2022/05/01 03:53:41;;;;;;;22.00;15.30;;;;;;;8.54;56.26;100660.73;106311;1273;110440;-75
2022/05/01 03:56:13;;;;;;;27.70;16.60;;;;;;;8.60;56.17;100659.92;107554;1273;139405;-76
2022/05/01 03:58:45;;;;;;;22.50;15.20;;;;;;;8.65;56.25;100661.58;107691;1273;109320;-76
2022/05/01 04:01:17;;;;;;;23.40;16.70;;;;;;;8.70;55.99;100665.13;106983;1273;138305;-77
2022/05/01 04:03:49;;;;;;;24.10;16.40;;;;;;;8.73;56.04;100660.73;106092;1274;97711;-76
2022/05/01 04:06:25;;;;;;;;;;;;;;;8.76;55.90;100662.07;106482;1275;112832;-76
2022/05/01 04:08:56;;;;;;;26.80;15.80;;;;;;;8.76;56.02;100662.05;107354;1273;124957;-76
2022/05/01 04:11:29;;;;;;;26.80;17.00;;;;;;;8.77;55.98;100662.39;106897;1273;107356;-78
2022/05/01 04:14:01;;;;;;;27.60;16.70;;;;;;;8.84;56.02;100662.29;106033;1273;138997;-75
2022/05/01 04:16:33;;;;;;;26.00;16.90;;;;;;;8.92;55.98;100666.10;106158;1273;97833;-77
2022/05/01 04:19:05;;;;;;;21.80;15.20;;;;;;;9.00;55.89;100668.23;106123;1274;112345;-77
2022/05/01 04:21:37;;;;;;;26.70;15.40;;;;;;;9.10;55.86;100662.82;106236;1273;138515;-77
2022/05/01 04:24:10;;;;;;;21.30;15.50;;;;;;;9.19;55.83;100661.27;106087;1273;108820;-76
2022/05/01 04:26:42;;;;;;;22.90;15.60;;;;;;;9.31;55.72;100662.23;107547;1273;138217;-75
2022/05/01 04:32:04;;;;;;;25.10;15.40;;;;;;;9.56;55.42;100662.21;107602;1272;138078;-76
2022/05/01 04:34:37;;;;;;;21.20;15.30;;;;;;;9.70;55.06;100663.48;107697;1273;108912;-76
2022/05/01 04:37:09;;;;;;;25.10;14.40;;;;;;;9.87;54.94;100666.59;107702;1273;108546;-76
2022/05/01 04:39:41;;;;;;;24.50;13.80;;;;;;;10.03;54.84;100665.35;107560;1273;138938;-76
2022/05/01 04:42:13;;;;;;;21.90;14.40;;;;;;;10.23;54.48;100666.27;107708;1273;96105;-76
2022/05/01 04:44:45;;;;;;;18.80;13.90;;;;;;;10.45;54.28;100670.10;107187;1270;137992;-76
2022/05/01 04:47:17;;;;;;;20.30;14.20;;;;;;;10.71;53.99;100666.48;106179;1273;108820;-78
2022/05/01 04:49:50;;;;;;;19.70;13.80;;;;;;;10.96;53.57;100667.91;106066;1273;138610;-77
2022/05/01 04:52:23;;;;;;;17.80;12.60;;;;;;;11.28;53.38;100665.96;107557;1273;97133;-78
2022/05/01 04:54:54;;;;;;;16.90;12.90;;;;;;;12.24;53.45;100667.41;106808;1273;97832;-76
2022/05/01 04:57:26;;;;;;;17.70;12.70;;;;;;;13.68;52.02;100658.13;106061;1273;139469;-77
2022/05/01 05:00:00;;;;;;;20.30;12.20;;;;;;;15.61;49.35;100649.45;106169;1273;108463;-76
2022/05/01 05:02:41;;;;;;;19.60;11.30;;;;;;;17.54;46.56;100647.96;106551;1273;138500;-77
2022/05/01 05:05:14;;;;;;;20.60;11.60;;;;;;;19.56;43.66;100643.14;106154;1273;98077;-77
2022/05/01 05:07:47;;;;;;;16.30;10.90;;;;;;;21.36;40.96;100633.56;106076;1273;139688;-76
2022/05/01 05:10:19;;;;;;;13.70;10.60;;;;;;;22.88;38.39;100635.27;107534;1273;111639;-77
2022/05/01 05:12:51;;;;;;;17.20;9.90;;;;;;;24.42;36.01;100628.71;107621;1273;108841;-77
2022/05/01 05:15:23;;;;;;;13.50;10.40;;;;;;;25.67;33.59;100623.06;107119;1273;139293;-76
2022/05/01 05:17:55;;;;;;;10.40;9.10;;;;;;;26.67;31.87;100624.23;106625;1273;97821;-77
2022/05/01 05:20:27;;;;;;;15.90;9.20;;;;;;;27.60;30.32;100622.29;106400;1273;138335;-78
2022/05/01 05:22:59;;;;;;;12.70;8.90;;;;;;;28.41;28.88;100621.20;107657;1273;111491;-78
2022/05/01 05:25:31;;;;;;;11.30;9.50;;;;;;;29.19;27.69;100620.04;107128;1273;138621;-77
2022/05/01 05:28:07;;;;;;;12.60;9.40;;;;;;;29.97;26.64;100621.73;106736;1273;108252;-77
2022/05/01 05:30:39;;;;;;;13.70;8.90;;;;;;;30.80;25.52;100620.70;107025;1273;97916;-78
2022/05/01 05:33:12;;;;;;;12.90;9.50;;;;;;;31.59;24.80;100619.52;106042;1273;137983;-77
2022/05/01 05:35:43;;;;;;;13.00;8.70;;;;;;;32.38;23.44;100617.98;106227;1273;112425;-78
2022/05/01 05:38:16;;;;;;;10.90;8.80;;;;;;;33.11;23.04;100611.00;106319;1273;138712;-77
2022/05/01 05:40:48;;;;;;;11.50;7.40;;;;;;;33.87;21.64;100611.72;106411;1273;108165;-77
2022/05/01 05:43:20;;;;;;;9.40;7.90;;;;;;;34.41;21.07;100615.18;107484;1273;140144;-76
2022/05/01 05:45:52;;;;;;;11.30;8.60;;;;;;;34.87;20.11;100613.02;106313;1273;97960;-77
2022/05/01 05:48:24;;;;;;;10.30;8.10;;;;;;;35.45;19.73;100609.20;106202;1273;111845;-77
2022/05/01 05:50:56;;;;;;;9.50;7.90;;;;;;;36.15;19.33;100608.25;107593;1273;140407;-77
2022/05/01 05:53:28;;;;;;;12.30;7.90;;;;;;;36.72;18.61;100616.14;107682;1273;107912;-77
2022/05/01 05:56:00;;;;;;;8.70;7.50;;;;;;;37.04;17.77;100614.21;107547;1273;139465;-76
2022/05/01 05:58:32;;;;;;;9.30;7.20;;;;;;;37.45;17.54;100615.70;107718;1273;96828;-76
2022/05/01 06:01:04;;;;;;;11.70;7.30;;;;;;;37.53;16.88;100610.84;107706;1273;112506;-76
2022/05/01 06:03:36;;;;;;;9.20;7.20;;;;;;;37.62;16.60;100618.66;106832;1273;139462;-75
2022/05/01 06:06:09;;;;;;;10.10;7.60;;;;;;;37.73;16.34;100620.58;106140;1273;108852;-75
2022/05/01 06:08:41;;;;;;;9.80;6.70;;;;;;;37.99;16.21;100623.87;106824;1273;139786;-75
2022/05/01 06:11:13;;;;;;;9.00;6.60;;;;;;;38.24;15.86;100624.17;106809;1273;98247;-77
2022/05/01 06:13:45;;;;;;;9.10;6.60;;;;;;;38.54;15.23;100623.64;106097;1271;138164;-76
2022/05/01 06:16:17;;;;;;;8.60;6.50;;;;;;;38.64;14.95;100622.51;106674;1273;109031;-78
2022/05/01 06:18:49;;;;;;;9.00;7.00;;;;;;;38.96;14.61;100622.29;107657;1273;108749;-76
2022/05/01 06:21:21;;;;;;;8.60;6.40;;;;;;;39.25;14.46;100620.65;107463;1274;139138;-76
2022/05/01 06:23:54;;;;;;;6.40;5.80;;;;;;;39.60;14.33;100626.14;107103;1273;98292;-77
2022/05/01 06:26:26;;;;;;;7.90;6.50;;;;;;;39.87;14.02;100625.48;107604;1273;139246;-75
2022/05/01 06:28:59;;;;;;;8.10;6.00;;;;;;;40.26;13.94;100631.08;107686;1273;108363;-76
2022/05/01 06:31:31;;;;;;;8.90;6.40;;;;;;;40.81;13.56;100632.26;106112;1273;138632;-75
2022/05/01 06:34:04;;;;;;;7.40;5.90;;;;;;;40.92;12.98;100636.35;106160;1273;97873;-78
2022/05/01 06:36:36;;;;;;;8.30;6.70;;;;;;;40.84;12.99;100637.30;106315;1273;97843;-77
2022/05/01 06:39:11;;;;;;;9.60;6.00;;;;;;;40.75;12.72;100636.25;106545;1274;138116;-77
2022/05/01 06:41:43;;;;;;;7.70;5.90;;;;;;;40.29;12.42;100635.66;107721;1273;108026;-77
2022/05/01 06:44:15;;;;;;;8.80;6.00;;;;;;;40.17;12.57;100632.14;107600;1273;138036;-76
2022/05/01 06:46:46;;;;;;;8.30;5.70;;;;;;;40.19;12.40;100633.93;107726;1273;96150;-77
2022/05/01 06:49:18;;;;;;;9.60;5.90;;;;;;;40.60;12.67;100634.31;107583;1273;137706;-75
2022/05/01 06:51:50;;;;;;;8.00;5.60;;;;;;;40.96;12.36;100635.77;107722;1273;112581;-77
2022/05/01 06:54:23;;;;;;;7.40;5.10;;;;;;;41.34;12.14;100633.67;107707;1273;109169;-76
2022/05/01 06:56:55;;;;;;;6.60;5.30;;;;;;;41.41;12.01;100634.41;107577;1273;137888;-77
2022/05/01 06:59:26;;;;;;;8.50;5.10;;;;;;;41.22;11.93;100633.34;107700;1273;97200;-76
2022/05/01 07:01:58;;;;;;;8.10;5.60;;;;;;;41.04;11.83;100635.50;106381;1274;138165;-76
2022/05/01 07:04:31;;;;;;;6.20;5.60;;;;;;;40.87;11.71;100635.40;106128;1274;112064;-77
2022/05/01 07:07:03;;;;;;;7.60;5.30;;;;;;;41.01;11.60;100637.16;107003;1274;109544;-77
2022/05/01 07:09:35;;;;;;;6.20;5.40;;;;;;;40.71;11.59;100634.20;107592;1274;138014;-77
2022/05/01 07:12:11;;;;;;;8.30;5.60;;;;;;;40.05;11.49;100630.61;107610;1274;95812;-77
2022/05/01 07:14:44;;;;;;;9.40;5.40;;;;;;;39.52;11.85;100629.52;107551;1273;138294;-76
2022/05/01 07:17:16;;;;;;;7.90;5.60;;;;;;;39.05;11.71;100627.58;107676;1273;111353;-76
2022/05/01 07:19:49;;;;;;;8.10;6.70;;;;;;;38.50;11.79;100631.85;106569;1274;138175;-77
2022/05/01 07:22:21;;;;;;;6.50;5.40;;;;;;;37.97;12.03;100633.52;106209;1273;108536;-78
2022/05/01 07:24:53;;;;;;;8.00;5.80;;;;;;;37.80;12.30;100634.25;106172;1274;97833;-77
2022/05/01 07:27:25;;;;;;;7.50;6.30;;;;;;;37.72;12.24;100627.92;106086;1274;137690;-77
2022/05/01 07:29:58;;;;;;;10.90;6.30;;;;;;;37.49;12.15;100631.23;106171;1274;112544;-77
2022/05/01 07:32:30;;;;;;;6.60;6.00;;;;;;;37.33;12.16;100634.27;106070;1274;138173;-77
2022/05/01 07:35:02;;;;;;;9.40;6.30;;;;;;;37.34;12.32;100629.71;106128;1274;109097;-77
2022/05/01 07:37:34;;;;;;;7.60;6.70;;;;;;;37.32;12.37;100632.18;106062;1274;139107;-76
2022/05/01 07:40:09;;;;;;;7.30;6.30;;;;;;;37.25;12.04;100634.36;106104;1274;97828;-78
2022/05/01 07:42:41;;;;;;;6.20;4.90;;;;;;;37.23;12.27;100636.17;106261;1274;111403;-76
2022/05/01 07:45:13;;;;;;;6.30;4.30;;;;;;;36.99;12.09;100633.72;106134;1274;138900;-77
2022/05/01 07:47:45;;;;;;;4.90;4.30;;;;;;;36.76;12.19;100638.45;107504;1274;109023;-77
2022/05/01 07:50:18;;;;;;;6.00;4.20;;;;;;;36.89;12.28;100640.50;106047;1274;138175;-77
2022/05/01 07:52:50;;;;;;;8.60;4.30;;;;;;;36.76;12.04;100637.88;106148;1274;97817;-75
2022/05/01 07:55:22;;;;;;;5.70;4.10;;;;;;;36.41;12.14;100639.52;106340;1274;140091;-76
2022/05/01 07:57:55;;;;;;;10.00;3.90;;;;;;;36.30;12.43;100629.55;107697;1273;107262;-76
2022/05/01 08:00:27;;;;;;;6.20;3.50;;;;;;;36.39;12.46;100628.48;106294;1274;107835;-75
2022/05/01 08:05:48;;;;;;;8.60;4.50;;;;;;;36.05;12.51;100619.15;107664;1273;96191;-76
2022/05/01 08:08:21;;;;;;;7.70;3.80;;;;;;;35.62;12.37;100614.96;106834;1274;137689;-77
2022/05/01 08:10:53;;;;;;;9.20;4.20;;;;;;;34.91;12.94;100619.86;107036;1274;108590;-77
2022/05/01 08:13:24;;;;;;;10.80;4.40;;;;;;;34.79;13.09;100617.39;107562;1273;138089;-76
2022/05/01 08:15:56;;;;;;;7.50;4.40;;;;;;;34.71;13.04;100619.77;107359;1274;96084;-76
2022/05/01 08:21:18;;;;;;;5.20;3.70;;;;;;;34.17;13.37;100617.52;107604;1274;137889;-76
2022/05/01 08:23:50;;;;;;;6.20;3.60;;;;;;;33.93;13.27;100616.73;107712;1274;109052;-76
2022/05/01 08:26:23;;;;;;;5.20;3.60;;;;;;;33.99;13.01;100614.79;106137;1274;137934;-77
2022/05/01 08:28:56;;;;;;;9.80;4.10;;;;;;;34.00;13.28;100618.00;106155;1273;98140;-78
2022/05/01 08:31:29;;;;;;;4.60;3.70;;;;;;;34.15;13.17;100614.73;106061;1274;139205;-76
2022/05/01 08:34:03;;;;;;;7.90;3.80;;;;;;;34.32;13.20;100613.63;107568;1274;111452;-76
2022/05/01 08:36:35;;;;;;;8.30;3.50;;;;;;;34.14;13.37;100610.34;106723;1274;108445;-76
2022/05/01 08:39:09;;;;;;;5.10;3.30;;;;;;;33.91;13.04;100607.45;105995;1273;138136;-76
2022/05/01 08:41:41;;;;;;;6.60;3.10;;;;;;;33.33;13.35;100607.26;106470;1273;98358;-78
2022/05/01 08:44:16;;;;;;;4.80;3.50;;;;;;;33.01;13.67;100609.79;107549;1274;137975;-78
2022/05/01 08:47:10;;;;;;;6.10;3.30;;;;;;;32.84;13.73;100604.91;106568;1273;112788;-77
2022/05/01 08:49:43;;;;;;;3.40;2.90;;;;;;;33.11;13.88;100601.80;106051;1274;138140;-77
2022/05/01 08:52:18;;;;;;;5.70;3.70;;;;;;;33.45;13.96;100597.16;107471;1273;108836;-77
2022/05/01 08:54:51;;;;;;;4.60;3.60;;;;;;;33.72;13.87;100597.02;107688;1274;95821;-77
2022/05/01 08:57:23;;;;;;;4.40;2.70;;;;;;;34.03;13.61;100591.45;107570;1273;137775;-77
2022/05/01 08:59:56;;;;;;;5.00;2.90;;;;;;;34.10;13.42;100592.98;107631;1274;111084;-77
2022/05/01 09:02:31;;;;;;;4.50;3.40;;;;;;;33.67;13.09;100595.88;107543;1273;138211;-76
2022/05/01 09:05:05;;;;;;;4.50;3.30;;;;;;;33.39;13.33;100595.55;106299;1273;108487;-77
2022/05/01 09:07:37;;;;;;;4.40;2.50;;;;;;;33.29;13.64;100592.33;106577;1273;138103;-76
2022/05/01 09:10:11;;;;;;;3.10;2.70;;;;;;;33.17;13.28;100592.56;107638;1274;96061;-77
2022/05/01 09:12:53;;;;;;;8.00;3.60;;;;;;;33.01;13.38;100594.02;107738;1273;112318;-77
2022/05/01 09:15:34;;;;;;;4.80;3.20;;;;;;;32.87;13.55;100589.38;106375;1273;138642;-76
2022/05/01 09:18:08;;;;;;;3.60;3.00;;;;;;;32.95;14.11;100590.54;106155;1273;108712;-77
2022/05/01 09:21:03;;;;;;;7.30;3.20;;;;;;;33.12;13.96;100583.70;107563;1273;138681;-77
2022/05/01 09:23:43;;;;;;;4.00;2.80;;;;;;;33.17;13.71;100580.21;107739;1273;96173;-78
2022/05/01 09:26:16;;;;;;;5.30;2.80;;;;;;;33.21;13.18;100582.73;107568;1273;138528;-77
2022/05/01 09:28:53;;;;;;;7.60;4.60;;;;;;;33.18;13.52;100580.64;107682;1273;108852;-77
2022/05/01 09:31:45;;;;;;;5.30;2.90;;;;;;;33.28;13.42;100582.98;106159;1273;138713;-76
2022/05/01 09:34:25;;;;;;;7.60;2.70;;;;;;;33.03;13.19;100582.27;106123;1273;97870;-77
2022/05/01 09:36:58;;;;;;;5.00;1.90;;;;;;;32.83;13.05;100577.37;107717;1273;96212;-77
2022/05/01 09:39:32;;;;;;;3.10;1.80;;;;;;;32.72;12.98;100579.86;107549;1273;137808;-76
2022/05/01 09:42:21;;;;;;;6.20;1.70;;;;;;;32.77;12.47;100579.64;106601;1273;109270;-76
2022/05/01 09:45:08;;;;;;;2.30;2.10;;;;;;;32.76;12.57;100574.70;106401;1273;138039;-76
2022/05/01 09:47:42;;;;;;;3.50;1.80;;;;;;;32.55;12.46;100575.30;107668;1273;96756;-76
2022/05/01 09:50:16;;;;;;;4.90;1.90;;;;;;;32.32;12.18;100578.39;107577;1273;137813;-76
2022/05/01 09:52:59;;;;;;;4.40;1.80;;;;;;;32.13;12.26;100579.06;107696;1273;111766;-76
2022/05/01 09:55:32;;;;;;;4.30;2.10;;;;;;;31.68;12.35;100580.98;107565;1273;137904;-75
2022/05/01 09:58:12;;;;;;;3.90;2.20;;;;;;;31.37;12.55;100577.42;107677;1273;108643;-76
2022/05/01 10:00:46;;;;;;;2.80;1.80;;;;;;;31.39;13.26;100574.70;107218;1273;97841;-75
2022/05/01 10:03:31;;;;;;;5.60;2.20;;;;;;;31.68;13.27;100572.05;107229;1273;138583;-76
2022/05/01 10:06:03;;;;;;;3.30;2.50;;;;;;;31.83;13.27;100571.00;107653;1273;111503;-76
2022/05/01 10:08:37;;;;;;;3.60;2.50;;;;;;;31.93;13.40;100570.58;106636;1273;139334;-77
2022/05/01 10:11:10;;;;;;;3.90;2.40;;;;;;;32.13;13.47;100568.71;106054;1274;108812;-76
2022/05/01 10:13:43;;;;;;;8.00;2.80;;;;;;;32.08;13.63;100572.93;107399;1273;141663;-77
2022/05/01 10:16:16;;;;;;;4.70;2.70;;;;;;;31.94;13.75;100566.73;107650;1271;96616;-76
2022/05/01 10:18:53;;;;;;;4.40;2.50;;;;;;;31.72;13.75;100559.73;106397;1273;112999;-78
2022/05/01 10:21:48;;;;;;;6.60;2.70;;;;;;;31.72;14.18;100560.02;107359;1273;138162;-77
2022/05/01 10:24:21;;;;;;;3.60;2.70;;;;;;;31.77;14.27;100563.05;107678;1273;108841;-76
2022/05/01 10:26:57;;;;;;;6.10;2.10;;;;;;;31.73;14.20;100556.77;107535;1273;139247;-78
2022/05/01 10:29:39;;;;;;;;;;;;;;;31.86;14.36;100554.35;107721;1273;96102;-78
2022/05/01 10:32:53;;;;;;;6.60;2.50;;;;;;;31.81;14.09;100553.55;107539;1273;124254;-77
2022/05/01 10:36:02;;;;;;;5.60;2.50;;;;;;;31.78;14.32;100550.23;106069;1280;107879;-77
2022/05/01 10:38:42;;;;;;;5.00;2.40;;;;;;;31.94;14.38;100549.48;106084;1280;138617;-77
2022/05/01 10:41:18;;;;;;;5.90;2.40;;;;;;;32.21;13.97;100542.30;106989;1281;96025;-78
2022/05/01 10:44:02;;;;;;;5.30;2.80;;;;;;;32.30;13.92;100541.02;106353;1281;137946;-77
2022/05/01 10:46:34;;;;;;;8.60;2.70;;;;;;;32.30;13.94;100532.09;106147;1279;110732;-77
2022/05/01 10:49:07;;;;;;;4.00;2.90;;;;;;;32.08;13.87;100540.77;105659;1281;108804;-78
2022/05/01 10:51:52;;;;;;;4.30;2.70;;;;;;;32.01;14.19;100535.45;106849;1279;137857;-63
2022/05/01 10:54:39;;;;;;;4.70;2.30;;;;;;;31.91;14.41;100535.43;105874;1281;97862;-64
2022/05/01 10:57:17;;;;;;;4.70;2.10;;;;;;;31.75;14.75;100534.23;105606;1281;138067;-66
2022/05/01 10:59:51;;;;;;;4.30;2.20;;;;;;;31.57;14.74;100533.02;105701;1279;112452;-65
2022/05/01 11:02:38;;;;;;;4.10;2.30;;;;;;;31.46;14.84;100528.98;105538;1280;138307;-65
2022/05/01 11:05:12;;;;;;;6.80;2.40;;;;;;;31.37;14.74;100527.54;105883;1279;108797;-62
2022/05/01 11:07:45;;;;;;;5.90;2.40;;;;;;;31.27;14.64;100528.47;105723;1279;138282;-64
2022/05/01 11:10:18;;;;;;;3.70;2.60;;;;;;;30.94;14.75;100527.04;105463;1281;218389;-65
2022/05/01 11:12:51;;;;;;;4.80;2.30;;;;;;;30.77;14.87;100522.34;105995;1273;112828;-64
2022/05/01 11:15:28;;;;;;;4.70;2.00;;;;;;;30.51;14.78;100524.86;105952;1273;138048;-66
2022/05/01 11:18:00;;;;;;;3.50;2.20;;;;;;;30.27;15.09;100526.10;106133;1273;108870;-64
2022/05/01 11:20:36;;;;;;;3.70;2.30;;;;;;;30.03;14.98;100519.61;105947;1273;137886;-65
2022/05/01 11:23:31;;;;;;;3.60;2.20;;;;;;;29.61;14.68;100515.02;106062;1273;97853;-65
2022/05/01 11:26:17;;;;;;;6.50;2.90;;;;;;;28.94;14.92;100517.92;105868;1273;138118;-65
2022/05/01 11:28:57;;;;;;;5.80;2.50;;;;;;;28.40;15.45;100515.83;107614;1273;108992;-64
2022/05/01 11:31:50;;;;;;;10.50;2.20;;;;;;;28.14;15.84;100515.91;107475;1273;138936;-64
2022/05/01 11:34:52;;;;;;;7.20;2.50;;;;;;;27.97;16.43;100512.52;106202;1273;97829;-64
2022/05/01 11:37:25;;;;;;;3.40;2.00;;;;;;;27.63;16.18;100516.26;105965;1273;139372;-66
2022/05/01 11:40:28;;;;;;;4.00;2.70;;;;;;;27.38;16.59;100510.52;107654;1273;112153;-66
2022/05/01 11:43:20;;;;;;;4.40;2.30;;;;;;;26.53;16.83;100509.97;107649;1273;106121;-65
2022/05/01 11:45:52;;;;;;;2.70;2.10;;;;;;;26.13;17.41;100507.34;107545;1273;137801;-65
2022/05/01 11:48:24;;;;;;;5.10;2.20;;;;;;;26.10;17.50;100503.56;107674;1273;96126;-65
2022/05/01 11:50:59;;;;;;;4.20;2.50;;;;;;;25.98;17.51;100500.73;107468;1273;137778;-65
2022/05/01 11:53:33;;;;;;;5.30;2.20;;;;;;;26.00;17.64;100497.58;107601;1273;111407;-65
2022/05/01 12:04:58;;;;;;;3.60;2.20;;;;;;;26.21;17.12;100485.71;107526;1273;95969;-64
2022/05/01 12:07:30;;;;;;;3.90;2.40;;;;;;;26.11;16.98;100488.32;106750;1273;139353;-64
2022/05/01 12:10:02;;;;;;;5.70;2.30;;;;;;;26.02;17.08;100488.06;106400;1273;109178;-65
2022/05/01 12:12:34;;;;;;;3.90;2.50;;;;;;;26.09;17.28;100485.45;106077;1273;109169;-66
2022/05/01 12:15:09;;;;;;;7.30;2.90;;;;;;;26.21;17.02;100481.84;105935;1273;138099;-65
2022/05/01 12:17:43;;;;;;;6.10;1.90;;;;;;;26.28;16.75;100480.82;106831;1273;97961;-64
2022/05/01 12:20:15;;;;;;;7.00;2.30;;;;;;;26.35;17.17;100482.81;106169;1273;137947;-64
2022/05/01 12:22:47;;;;;;;5.40;3.10;;;;;;;26.54;17.27;100487.30;106134;1273;109063;-65
2022/05/01 12:25:25;;;;;;;6.90;2.60;;;;;;;26.57;17.10;100483.95;106088;1273;108813;-65
2022/05/01 12:27:58;;;;;;;4.00;1.90;;;;;;;26.58;17.04;100482.32;106189;1273;139997;-64
2022/05/01 12:30:32;;;;;;;4.20;2.30;;;;;;;26.53;16.92;100478.27;106259;1273;97952;-65
2022/05/01 12:33:05;;;;;;;4.40;3.00;;;;;;;26.40;16.62;100480.62;105877;1273;137829;-65
2022/05/01 12:35:58;;;;;;;5.30;3.30;;;;;;;26.26;16.91;100472.79;106155;1273;108856;-66
2022/05/01 12:38:31;;;;;;;5.10;2.90;;;;;;;26.23;17.41;100464.21;106009;1273;138057;-63
2022/05/01 12:44:24;;;;;;;4.10;2.40;;;;;;;26.08;17.20;100459.20;107576;1273;137665;-66
2022/05/01 12:46:56;;;;;;;5.80;2.40;;;;;;;25.94;17.27;100455.73;106624;1274;112211;-65
2022/05/01 12:49:29;;;;;;;2.70;2.00;;;;;;;25.87;17.39;100458.80;106103;1273;108964;-65
2022/05/01 12:52:01;;;;;;;3.30;2.30;;;;;;;25.84;17.48;100457.45;107523;1273;138127;-65
2022/05/01 12:54:33;;;;;;;4.30;2.40;;;;;;;25.76;17.17;100460.36;107649;1273;95991;-65
2022/05/01 12:57:26;;;;;;;3.40;2.30;;;;;;;25.68;16.97;100452.58;107557;1273;138176;-65
2022/05/01 12:59:58;;;;;;;3.10;1.90;;;;;;;25.64;16.64;100451.52;107652;1273;112551;-66
2022/05/01 13:02:30;;;;;;;5.10;2.40;;;;;;;25.59;17.18;100450.30;107528;1272;137870;-66
2022/05/01 13:05:04;;;;;;;5.20;2.30;;;;;;;25.54;17.99;100449.52;106197;1273;108895;-63
2022/05/01 13:07:42;;;;;;;4.50;2.30;;;;;;;25.58;17.93;100449.00;106981;1273;138432;-64
2022/05/01 13:10:20;;;;;;;3.40;2.40;;;;;;;25.51;17.44;100442.38;106169;1273;98275;-62
2022/05/01 13:13:00;;;;;;;3.50;2.30;;;;;;;25.46;17.70;100441.58;107520;1273;111091;-64
2022/05/01 13:15:40;;;;;;;4.30;2.60;;;;;;;25.39;18.12;100441.39;106205;1273;137973;-63
2022/05/01 13:18:12;;;;;;;4.60;2.60;;;;;;;25.39;18.16;100439.95;106105;1273;108108;-63
2022/05/01 13:20:45;;;;;;;5.30;2.50;;;;;;;25.41;18.63;100438.51;106048;1273;138009;-65
2022/05/01 13:23:17;;;;;;;4.50;2.40;;;;;;;25.46;18.36;100435.36;106118;1273;97849;-65
2022/05/01 13:25:49;;;;;;;6.90;3.00;;;;;;;25.32;18.51;100429.99;106015;1273;138057;-65
2022/05/01 13:28:21;;;;;;;5.30;3.20;;;;;;;25.22;19.04;100424.34;106175;1273;108789;-64
2022/05/01 13:30:53;;;;;;;6.70;2.60;;;;;;;25.10;18.87;100428.81;106099;1273;109244;-64
2022/05/01 13:33:25;;;;;;;4.20;2.70;;;;;;;24.90;18.89;100432.58;106017;1273;138084;-64
2022/05/01 13:35:58;;;;;;;4.80;2.40;;;;;;;24.78;18.92;100429.41;106100;1273;97852;-64
2022/05/01 13:38:30;;;;;;;7.40;3.10;;;;;;;24.66;19.02;100424.52;105947;1273;137880;-65
2022/05/01 13:46:42;;;;;;;7.30;2.90;;;;;;;24.03;18.59;100419.87;106127;1272;97840;-66
2022/05/01 13:49:14;;;;;;;5.20;3.10;;;;;;;23.74;18.47;100420.58;107669;1273;96051;-64
2022/05/01 13:51:46;;;;;;;5.20;2.40;;;;;;;23.32;18.42;100423.90;107506;1273;138966;-63
2022/05/01 13:54:18;;;;;;;5.20;2.50;;;;;;;22.91;18.79;100426.73;107684;1270;108831;-64
2022/05/01 13:56:51;;;;;;;3.80;2.30;;;;;;;22.68;19.10;100424.16;107554;1273;140014;-64
2022/05/01 13:59:23;;;;;;;7.50;2.50;;;;;;;22.50;19.21;100424.88;107022;1273;97944;-64
2022/05/01 14:01:56;;;;;;;4.30;2.10;;;;;;;22.40;19.85;100424.73;106033;1273;138043;-64
2022/05/01 14:04:29;;;;;;;5.20;2.50;;;;;;;22.46;20.23;100421.44;106118;1273;112075;-64
2022/05/01 14:07:01;;;;;;;3.60;2.20;;;;;;;22.54;19.90;100420.83;106114;1273;109157;-64
2022/05/01 14:09:35;;;;;;;3.90;2.40;;;;;;;22.58;20.20;100418.73;106061;1273;138055;-65
2022/05/01 14:12:10;;;;;;;4.90;2.50;;;;;;;22.66;20.27;100415.23;106108;1273;97913;-64
2022/05/01 14:14:43;;;;;;;4.60;2.60;;;;;;;22.73;20.15;100415.06;107462;1273;137731;-65
2022/05/01 14:17:15;;;;;;;4.40;2.40;;;;;;;22.79;20.21;100415.41;107229;1273;112095;-65